sensor_id;sensor_type;location;lat;lon;timestamp;pressure;altitude;pressure_sealevel;temperature;humidity
83563;BME280;73535;52.500;13.482;2023-11-19T00:00:09;101196.28;;;5.52;76.64
83563;BME280;73535;52.500;13.482;2023-11-19T00:02:38;101192.00;;;5.51;76.94
83563;BME280;73535;52.500;13.482;2023-11-19T00:05:03;101194.59;;;5.51;77.28
83563;BME280;73535;52.500;13.482;2023-11-19T00:07:28;101192.03;;;5.49;77.25
83563;BME280;73535;52.500;13.482;2023-11-19T00:09:54;101169.53;;;5.48;76.80
83563;BME280;73535;52.500;13.482;2023-11-19T00:12:20;101164.44;;;5.45;77.15
83563;BME280;73535;52.500;13.482;2023-11-19T00:14:45;101156.28;;;5.53;76.61
83563;BME280;73535;52.500;13.482;2023-11-19T00:17:11;101143.44;;;5.48;77.01
83563;BME280;73535;52.500;13.482;2023-11-19T00:19:36;101133.84;;;5.49;76.90
83563;BME280;73535;52.500;13.482;2023-11-19T00:22:01;101139.19;;;5.46;76.85
83563;BME280;73535;52.500;13.482;2023-11-19T00:24:28;101130.53;;;5.45;76.77
83563;BME280;73535;52.500;13.482;2023-11-19T00:26:53;101127.94;;;5.45;76.98
83563;BME280;73535;52.500;13.482;2023-11-19T00:29:18;101130.47;;;5.47;76.96
83563;BME280;73535;52.500;13.482;2023-11-19T00:31:45;101128.75;;;5.46;76.92
83563;BME280;73535;52.500;13.482;2023-11-19T00:34:10;101120.94;;;5.46;76.66
83563;BME280;73535;52.500;13.482;2023-11-19T00:36:36;101114.94;;;5.44;76.63
83563;BME280;73535;52.500;13.482;2023-11-19T00:39:01;101107.91;;;5.46;76.68
83563;BME280;73535;52.500;13.482;2023-11-19T00:41:26;101101.78;;;5.47;76.20
83563;BME280;73535;52.500;13.482;2023-11-19T00:43:51;101097.44;;;5.47;76.21
83563;BME280;73535;52.500;13.482;2023-11-19T00:46:16;101093.97;;;5.47;76.03
83563;BME280;73535;52.500;13.482;2023-11-19T00:48:42;101090.47;;;5.48;76.63
83563;BME280;73535;52.500;13.482;2023-11-19T00:51:07;101078.22;;;5.50;76.29
83563;BME280;73535;52.500;13.482;2023-11-19T00:53:32;101070.47;;;5.48;76.14
83563;BME280;73535;52.500;13.482;2023-11-19T00:55:59;101060.94;;;5.47;76.32
83563;BME280;73535;52.500;13.482;2023-11-19T00:58:24;101050.31;;;5.52;76.10
83563;BME280;73535;52.500;13.482;2023-11-19T01:00:49;101049.47;;;5.51;76.18
83563;BME280;73535;52.500;13.482;2023-11-19T01:03:15;101049.63;;;5.48;76.00
83563;BME280;73535;52.500;13.482;2023-11-19T01:05:41;101030.44;;;5.49;75.87
83563;BME280;73535;52.500;13.482;2023-11-19T01:08:06;101027.78;;;5.51;75.79
83563;BME280;73535;52.500;13.482;2023-11-19T01:10:31;101017.34;;;5.51;75.66
83563;BME280;73535;52.500;13.482;2023-11-19T01:12:57;101016.50;;;5.50;75.47
83563;BME280;73535;52.500;13.482;2023-11-19T01:15:22;101005.09;;;5.53;75.62
83563;BME280;73535;52.500;13.482;2023-11-19T01:17:48;100984.94;;;5.56;75.70
83563;BME280;73535;52.500;13.482;2023-11-19T01:20:13;100973.66;;;5.56;75.33
83563;BME280;73535;52.500;13.482;2023-11-19T01:22:39;100960.69;;;5.54;75.50
83563;BME280;73535;52.500;13.482;2023-11-19T01:25:05;100956.31;;;5.55;75.63
83563;BME280;73535;52.500;13.482;2023-11-19T01:27:30;100953.59;;;5.58;75.42
83563;BME280;73535;52.500;13.482;2023-11-19T01:29:56;100949.44;;;5.54;75.46
83563;BME280;73535;52.500;13.482;2023-11-19T01:32:21;100951.13;;;5.55;75.63
83563;BME280;73535;52.500;13.482;2023-11-19T01:34:46;100949.34;;;5.55;75.19
83563;BME280;73535;52.500;13.482;2023-11-19T01:37:11;100949.31;;;5.57;75.37
83563;BME280;73535;52.500;13.482;2023-11-19T01:39:39;100945.63;;;5.61;74.72
83563;BME280;73535;52.500;13.482;2023-11-19T01:42:04;100943.75;;;5.64;75.16
83563;BME280;73535;52.500;13.482;2023-11-19T01:44:29;100930.91;;;5.60;74.85
83563;BME280;73535;52.500;13.482;2023-11-19T01:46:55;100929.84;;;5.64;74.85
83563;BME280;73535;52.500;13.482;2023-11-19T01:49:20;100905.53;;;5.63;74.58
83563;BME280;73535;52.500;13.482;2023-11-19T01:51:47;100900.97;;;5.68;74.68
83563;BME280;73535;52.500;13.482;2023-11-19T01:54:12;100882.00;;;5.65;74.60
83563;BME280;73535;52.500;13.482;2023-11-19T01:56:39;100883.63;;;5.67;74.15
83563;BME280;73535;52.500;13.482;2023-11-19T01:59:07;100875.72;;;5.69;74.69
83563;BME280;73535;52.500;13.482;2023-11-19T02:01:32;100869.59;;;5.70;74.74
83563;BME280;73535;52.500;13.482;2023-11-19T02:04:01;100860.88;;;5.71;74.58
83563;BME280;73535;52.500;13.482;2023-11-19T02:06:27;100871.38;;;5.69;74.89
83563;BME280;73535;52.500;13.482;2023-11-19T02:08:53;100863.50;;;5.71;75.41
83563;BME280;73535;52.500;13.482;2023-11-19T02:11:18;100850.50;;;5.69;75.77
83563;BME280;73535;52.500;13.482;2023-11-19T02:13:44;100828.75;;;5.70;75.67
83563;BME280;73535;52.500;13.482;2023-11-19T02:16:09;100816.41;;;5.74;75.97
83563;BME280;73535;52.500;13.482;2023-11-19T02:18:36;100788.63;;;5.73;75.93
83563;BME280;73535;52.500;13.482;2023-11-19T02:21:01;100791.38;;;5.70;75.91
83563;BME280;73535;52.500;13.482;2023-11-19T02:23:27;100785.31;;;5.69;75.94
83563;BME280;73535;52.500;13.482;2023-11-19T02:28:42;100783.50;;;5.72;75.96
83563;BME280;73535;52.500;13.482;2023-11-19T02:31:08;100778.19;;;5.73;75.98
83563;BME280;73535;52.500;13.482;2023-11-19T02:33:35;100766.78;;;5.76;76.05
83563;BME280;73535;52.500;13.482;2023-11-19T02:36:00;100765.94;;;5.75;76.06
83563;BME280;73535;52.500;13.482;2023-11-19T02:38:26;100760.72;;;5.75;76.53
83563;BME280;73535;52.500;13.482;2023-11-19T02:40:51;100767.63;;;5.76;76.24
83563;BME280;73535;52.500;13.482;2023-11-19T02:43:16;100750.97;;;5.79;76.07
83563;BME280;73535;52.500;13.482;2023-11-19T02:45:43;100737.09;;;5.78;76.06
83563;BME280;73535;52.500;13.482;2023-11-19T02:48:10;100734.50;;;5.78;76.08
83563;BME280;73535;52.500;13.482;2023-11-19T02:50:36;100729.22;;;5.80;76.25
83563;BME280;73535;52.500;13.482;2023-11-19T02:53:02;100739.69;;;5.78;76.11
83563;BME280;73535;52.500;13.482;2023-11-19T02:55:27;100729.91;;;5.83;76.00
83563;BME280;73535;52.500;13.482;2023-11-19T02:57:55;100710.72;;;5.84;75.69
83563;BME280;73535;52.500;13.482;2023-11-19T03:00:24;100702.03;;;5.85;76.04
83563;BME280;73535;52.500;13.482;2023-11-19T03:02:51;100683.75;;;5.85;75.96
83563;BME280;73535;52.500;13.482;2023-11-19T03:05:25;100685.28;;;5.89;75.90
83563;BME280;73535;52.500;13.482;2023-11-19T03:07:50;100671.47;;;5.87;75.68
83563;BME280;73535;52.500;13.482;2023-11-19T03:10:15;100672.19;;;5.91;75.71
83563;BME280;73535;52.500;13.482;2023-11-19T03:12:41;100673.94;;;5.90;75.93
83563;BME280;73535;52.500;13.482;2023-11-19T03:15:07;100675.47;;;5.94;75.58
83563;BME280;73535;52.500;13.482;2023-11-19T03:17:35;100671.94;;;5.95;75.63
83563;BME280;73535;52.500;13.482;2023-11-19T03:20:00;100677.25;;;5.94;75.85
83563;BME280;73535;52.500;13.482;2023-11-19T03:22:26;100689.72;;;6.04;75.25
83563;BME280;73535;52.500;13.482;2023-11-19T03:24:51;100677.63;;;6.03;75.29
83563;BME280;73535;52.500;13.482;2023-11-19T03:27:17;100677.78;;;6.00;75.61
83563;BME280;73535;52.500;13.482;2023-11-19T03:29:42;100682.16;;;6.00;75.31
83563;BME280;73535;52.500;13.482;2023-11-19T03:32:07;100680.41;;;6.00;75.44
83563;BME280;73535;52.500;13.482;2023-11-19T03:34:32;100686.13;;;6.07;75.38
83563;BME280;73535;52.500;13.482;2023-11-19T03:36:58;100677.47;;;6.06;75.35
83563;BME280;73535;52.500;13.482;2023-11-19T03:39:23;100667.84;;;6.07;75.86
83563;BME280;73535;52.500;13.482;2023-11-19T03:41:50;100658.28;;;6.07;75.96
83563;BME280;73535;52.500;13.482;2023-11-19T03:44:15;100641.78;;;6.07;76.48
83563;BME280;73535;52.500;13.482;2023-11-19T03:46:41;100608.88;;;6.04;77.18
83563;BME280;73535;52.500;13.482;2023-11-19T03:49:07;100610.97;;;5.98;78.59
83563;BME280;73535;52.500;13.482;2023-11-19T03:51:32;100611.94;;;5.95;78.97
83563;BME280;73535;52.500;13.482;2023-11-19T03:53:57;100620.03;;;5.91;79.21
83563;BME280;73535;52.500;13.482;2023-11-19T03:56:23;100614.09;;;5.87;79.37
83563;BME280;73535;52.500;13.482;2023-11-19T03:58:48;100612.56;;;5.83;80.00
83563;BME280;73535;52.500;13.482;2023-11-19T04:01:13;100601.50;;;5.78;80.42
83563;BME280;73535;52.500;13.482;2023-11-19T04:03:39;100587.47;;;5.81;80.29
83563;BME280;73535;52.500;13.482;2023-11-19T04:06:04;100582.41;;;5.78;81.16
83563;BME280;73535;52.500;13.482;2023-11-19T04:08:29;100560.72;;;5.77;81.20
83563;BME280;73535;52.500;13.482;2023-11-19T04:10:55;100547.69;;;5.77;81.26
83563;BME280;73535;52.500;13.482;2023-11-19T04:13:20;100546.25;;;5.72;81.46
83563;BME280;73535;52.500;13.482;2023-11-19T04:15:45;100537.63;;;5.69;81.81
83563;BME280;73535;52.500;13.482;2023-11-19T04:18:10;100528.00;;;5.72;81.70
83563;BME280;73535;52.500;13.482;2023-11-19T04:20:36;100525.53;;;5.68;81.89
83563;BME280;73535;52.500;13.482;2023-11-19T04:23:01;100525.69;;;5.65;81.91
83563;BME280;73535;52.500;13.482;2023-11-19T04:25:26;100507.19;;;5.70;81.86
83563;BME280;73535;52.500;13.482;2023-11-19T04:27:52;100498.63;;;5.68;81.94
83563;BME280;73535;52.500;13.482;2023-11-19T04:30:18;100502.13;;;5.67;82.00
83563;BME280;73535;52.500;13.482;2023-11-19T04:32:46;100506.75;;;5.62;82.30
83563;BME280;73535;52.500;13.482;2023-11-19T04:35:13;100499.63;;;5.65;82.29
83563;BME280;73535;52.500;13.482;2023-11-19T04:37:39;100498.94;;;5.62;82.37
83563;BME280;73535;52.500;13.482;2023-11-19T04:40:05;100507.66;;;5.61;82.30
83563;BME280;73535;52.500;13.482;2023-11-19T04:42:30;100499.94;;;5.59;82.61
83563;BME280;73535;52.500;13.482;2023-11-19T04:44:57;100497.25;;;5.61;82.78
83563;BME280;73535;52.500;13.482;2023-11-19T04:47:22;100494.47;;;5.64;82.89
83563;BME280;73535;52.500;13.482;2023-11-19T04:49:47;100506.06;;;5.58;83.23
83563;BME280;73535;52.500;13.482;2023-11-19T04:52:13;100502.69;;;5.56;83.46
83563;BME280;73535;52.500;13.482;2023-11-19T04:54:41;100493.13;;;5.57;83.30
83563;BME280;73535;52.500;13.482;2023-11-19T04:57:07;100487.81;;;5.58;83.56
83563;BME280;73535;52.500;13.482;2023-11-19T04:59:35;100489.66;;;5.56;83.85
83563;BME280;73535;52.500;13.482;2023-11-19T05:02:01;100474.03;;;5.56;83.86
83563;BME280;73535;52.500;13.482;2023-11-19T05:04:26;100468.03;;;5.54;84.24
83563;BME280;73535;52.500;13.482;2023-11-19T05:06:51;100468.97;;;5.53;84.28
83563;BME280;73535;52.500;13.482;2023-11-19T05:09:16;100455.00;;;5.54;84.86
83563;BME280;73535;52.500;13.482;2023-11-19T05:11:41;100433.22;;;5.55;84.54
83563;BME280;73535;52.500;13.482;2023-11-19T05:14:07;100437.75;;;5.52;84.58
83563;BME280;73535;52.500;13.482;2023-11-19T05:16:32;100434.16;;;5.54;84.69
83563;BME280;73535;52.500;13.482;2023-11-19T05:18:57;100417.69;;;5.54;84.73
83563;BME280;73535;52.500;13.482;2023-11-19T05:21:22;100422.22;;;5.50;84.76
83563;BME280;73535;52.500;13.482;2023-11-19T05:23:49;100409.09;;;5.52;84.84
83563;BME280;73535;52.500;13.482;2023-11-19T05:26:18;100394.41;;;5.51;84.88
83563;BME280;73535;52.500;13.482;2023-11-19T05:28:44;100394.41;;;5.51;85.25
83563;BME280;73535;52.500;13.482;2023-11-19T05:31:09;100397.00;;;5.51;85.16
83563;BME280;73535;52.500;13.482;2023-11-19T05:33:35;100389.09;;;5.52;85.22
83563;BME280;73535;52.500;13.482;2023-11-19T05:36:00;100394.13;;;5.55;85.20
83563;BME280;73535;52.500;13.482;2023-11-19T05:38:28;100384.41;;;5.59;85.35
83563;BME280;73535;52.500;13.482;2023-11-19T05:40:54;100375.22;;;5.52;85.32
83563;BME280;73535;52.500;13.482;2023-11-19T05:43:19;100366.31;;;5.56;85.35
83563;BME280;73535;52.500;13.482;2023-11-19T05:45:44;100383.66;;;5.57;85.17
83563;BME280;73535;52.500;13.482;2023-11-19T05:48:09;100372.38;;;5.56;85.14
83563;BME280;73535;52.500;13.482;2023-11-19T05:50:34;100366.06;;;5.60;85.34
83563;BME280;73535;52.500;13.482;2023-11-19T05:53:00;100360.03;;;5.60;85.49
83563;BME280;73535;52.500;13.482;2023-11-19T05:55:26;100346.16;;;5.59;85.21
83563;BME280;73535;52.500;13.482;2023-11-19T05:57:53;100339.16;;;5.60;85.46
83563;BME280;73535;52.500;13.482;2023-11-19T06:00:18;100340.94;;;5.59;85.49
83563;BME280;73535;52.500;13.482;2023-11-19T06:02:43;100337.31;;;5.62;85.31
83563;BME280;73535;52.500;13.482;2023-11-19T06:05:08;100330.34;;;5.62;85.46
83563;BME280;73535;52.500;13.482;2023-11-19T06:07:34;100324.19;;;5.63;85.56
83563;BME280;73535;52.500;13.482;2023-11-19T06:10:00;100322.25;;;5.67;85.47
83563;BME280;73535;52.500;13.482;2023-11-19T06:12:26;100325.97;;;5.63;85.98
83563;BME280;73535;52.500;13.482;2023-11-19T06:14:52;100326.88;;;5.62;85.51
83563;BME280;73535;52.500;13.482;2023-11-19T06:17:18;100335.44;;;5.64;85.70
83563;BME280;73535;52.500;13.482;2023-11-19T06:19:43;100320.22;;;5.72;85.33
83563;BME280;73535;52.500;13.482;2023-11-19T06:22:08;100318.72;;;5.68;85.64
83563;BME280;73535;52.500;13.482;2023-11-19T06:24:33;100309.91;;;5.70;85.90
83563;BME280;73535;52.500;13.482;2023-11-19T06:26:59;100300.16;;;5.74;85.65
83563;BME280;73535;52.500;13.482;2023-11-19T06:29:25;100286.16;;;5.75;85.49
83563;BME280;73535;52.500;13.482;2023-11-19T06:31:50;100290.63;;;5.73;85.77
83563;BME280;73535;52.500;13.482;2023-11-19T06:34:16;100288.19;;;5.70;85.94
83563;BME280;73535;52.500;13.482;2023-11-19T06:36:41;100284.50;;;5.74;85.99
83563;BME280;73535;52.500;13.482;2023-11-19T06:39:08;100283.56;;;5.75;86.01
83563;BME280;73535;52.500;13.482;2023-11-19T06:41:33;100275.50;;;5.80;85.73
83563;BME280;73535;52.500;13.482;2023-11-19T06:43:59;100276.41;;;5.79;85.81
83563;BME280;73535;52.500;13.482;2023-11-19T06:46:24;100273.13;;;5.75;85.82
83563;BME280;73535;52.500;13.482;2023-11-19T06:48:50;100260.59;;;5.82;85.92
83563;BME280;73535;52.500;13.482;2023-11-19T06:51:15;100254.38;;;5.84;85.93
83563;BME280;73535;52.500;13.482;2023-11-19T06:53:42;100268.53;;;5.80;86.20
83563;BME280;73535;52.500;13.482;2023-11-19T06:56:22;100264.22;;;5.79;86.11
83563;BME280;73535;52.500;13.482;2023-11-19T06:58:48;100270.97;;;5.83;85.99
83563;BME280;73535;52.500;13.482;2023-11-19T07:01:14;100259.56;;;5.84;86.25
83563;BME280;73535;52.500;13.482;2023-11-19T07:03:40;100265.50;;;5.88;86.12
83563;BME280;73535;52.500;13.482;2023-11-19T07:06:05;100265.91;;;5.96;86.01
83563;BME280;73535;52.500;13.482;2023-11-19T07:08:30;100266.34;;;5.88;86.07
83563;BME280;73535;52.500;13.482;2023-11-19T07:10:56;100267.25;;;5.87;86.04
83563;BME280;73535;52.500;13.482;2023-11-19T07:13:21;100255.75;;;5.91;86.18
83563;BME280;73535;52.500;13.482;2023-11-19T07:15:46;100256.59;;;5.92;86.31
83563;BME280;73535;52.500;13.482;2023-11-19T07:18:11;100261.97;;;5.89;86.46
83563;BME280;73535;52.500;13.482;2023-11-19T07:20:37;100274.91;;;5.90;86.25
83563;BME280;73535;52.500;13.482;2023-11-19T07:23:03;100268.78;;;5.91;86.30
83563;BME280;73535;52.500;13.482;2023-11-19T07:25:28;100279.97;;;5.93;86.33
83563;BME280;73535;52.500;13.482;2023-11-19T07:27:53;100273.66;;;5.97;86.21
83563;BME280;73535;52.500;13.482;2023-11-19T07:30:19;100266.56;;;5.99;86.17
83563;BME280;73535;52.500;13.482;2023-11-19T07:32:44;100264.06;;;5.98;86.53
83563;BME280;73535;52.500;13.482;2023-11-19T07:35:09;100257.91;;;5.99;86.49
83563;BME280;73535;52.500;13.482;2023-11-19T07:37:34;100246.63;;;5.98;86.56
83563;BME280;73535;52.500;13.482;2023-11-19T07:40:00;100252.78;;;5.97;86.93
83563;BME280;73535;52.500;13.482;2023-11-19T07:42:25;100252.09;;;6.09;86.56
83563;BME280;73535;52.500;13.482;2023-11-19T07:44:50;100251.09;;;5.96;86.78
83563;BME280;73535;52.500;13.482;2023-11-19T07:47:15;100246.34;;;5.89;87.07
83563;BME280;73535;52.500;13.482;2023-11-19T07:49:41;100248.84;;;5.90;87.21
83563;BME280;73535;52.500;13.482;2023-11-19T07:52:08;100253.03;;;5.93;87.22
83563;BME280;73535;52.500;13.482;2023-11-19T07:54:34;100252.34;;;5.89;87.48
83563;BME280;73535;52.500;13.482;2023-11-19T07:56:59;100255.75;;;5.91;87.54
83563;BME280;73535;52.500;13.482;2023-11-19T07:59:24;100250.00;;;6.00;87.56
83563;BME280;73535;52.500;13.482;2023-11-19T08:01:49;100247.41;;;6.00;87.67
83563;BME280;73535;52.500;13.482;2023-11-19T08:04:15;100255.28;;;5.99;87.58
83563;BME280;73535;52.500;13.482;2023-11-19T08:06:40;100251.09;;;5.96;87.85
83563;BME280;73535;52.500;13.482;2023-11-19T08:09:05;100257.56;;;6.05;87.74
83563;BME280;73535;52.500;13.482;2023-11-19T08:11:31;100242.28;;;6.13;87.34
83563;BME280;73535;52.500;13.482;2023-11-19T08:13:56;100238.66;;;6.15;87.54
83563;BME280;73535;52.500;13.482;2023-11-19T08:16:22;100246.41;;;6.17;87.53
83563;BME280;73535;52.500;13.482;2023-11-19T08:18:47;100240.19;;;6.19;87.55
83563;BME280;73535;52.500;13.482;2023-11-19T08:21:12;100248.31;;;6.29;87.55
83563;BME280;73535;52.500;13.482;2023-11-19T08:23:38;100241.16;;;6.33;87.68
83563;BME280;73535;52.500;13.482;2023-11-19T08:26:04;100240.03;;;6.37;87.35
83563;BME280;73535;52.500;13.482;2023-11-19T08:28:30;100226.97;;;6.37;87.26
83563;BME280;73535;52.500;13.482;2023-11-19T08:30:56;100232.00;;;6.40;87.23
83563;BME280;73535;52.500;13.482;2023-11-19T08:33:21;100226.44;;;6.46;87.45
83563;BME280;73535;52.500;13.482;2023-11-19T08:35:47;100219.25;;;6.49;87.52
83563;BME280;73535;52.500;13.482;2023-11-19T08:38:12;100218.25;;;6.52;87.36
83563;BME280;73535;52.500;13.482;2023-11-19T08:40:38;100232.97;;;6.53;87.72
83563;BME280;73535;52.500;13.482;2023-11-19T08:43:03;100217.94;;;6.56;87.77
83563;BME280;73535;52.500;13.482;2023-11-19T08:45:30;100203.13;;;6.57;87.50
83563;BME280;73535;52.500;13.482;2023-11-19T08:47:56;100197.53;;;6.63;87.53
83563;BME280;73535;52.500;13.482;2023-11-19T08:50:21;100200.06;;;6.64;87.83
83563;BME280;73535;52.500;13.482;2023-11-19T08:52:47;100200.63;;;6.69;87.69
83563;BME280;73535;52.500;13.482;2023-11-19T08:55:12;100208.09;;;6.75;87.82
83563;BME280;73535;52.500;13.482;2023-11-19T08:57:38;100215.59;;;7.49;92.21
83563;BME280;73535;52.500;13.482;2023-11-19T09:00:04;100216.19;;;6.99;86.93
83563;BME280;73535;52.500;13.482;2023-11-19T09:02:34;100204.31;;;6.94;87.51
83563;BME280;73535;52.500;13.482;2023-11-19T09:04:59;100214.59;;;6.97;87.38
83563;BME280;73535;52.500;13.482;2023-11-19T09:07:24;100201.91;;;7.05;87.92
83563;BME280;73535;52.500;13.482;2023-11-19T09:09:49;100204.53;;;7.05;87.67
83563;BME280;73535;52.500;13.482;2023-11-19T09:12:15;100205.34;;;7.05;87.78
83563;BME280;73535;52.500;13.482;2023-11-19T09:14:40;100202.66;;;7.07;87.88
83563;BME280;73535;52.500;13.482;2023-11-19T09:17:06;100208.53;;;7.10;88.11
83563;BME280;73535;52.500;13.482;2023-11-19T09:19:32;100212.72;;;7.13;88.21
83563;BME280;73535;52.500;13.482;2023-11-19T09:21:57;100219.41;;;7.17;88.36
83563;BME280;73535;52.500;13.482;2023-11-19T09:24:23;100203.91;;;7.28;88.22
83563;BME280;73535;52.500;13.482;2023-11-19T09:26:48;100212.50;;;7.30;88.25
83563;BME280;73535;52.500;13.482;2023-11-19T09:29:13;100215.75;;;7.33;88.40
83563;BME280;73535;52.500;13.482;2023-11-19T09:31:39;100208.47;;;7.38;88.50
83563;BME280;73535;52.500;13.482;2023-11-19T09:34:05;100191.78;;;7.54;88.62
83563;BME280;73535;52.500;13.482;2023-11-19T09:36:30;100205.06;;;7.51;88.94
83563;BME280;73535;52.500;13.482;2023-11-19T09:38:56;100209.13;;;7.55;89.03
83563;BME280;73535;52.500;13.482;2023-11-19T09:41:21;100202.06;;;7.57;88.90
83563;BME280;73535;52.500;13.482;2023-11-19T09:43:46;100192.78;;;7.78;89.07
83563;BME280;73535;52.500;13.482;2023-11-19T09:46:15;100185.31;;;7.86;88.99
83563;BME280;73535;52.500;13.482;2023-11-19T09:48:42;100187.09;;;7.85;89.32
83563;BME280;73535;52.500;13.482;2023-11-19T09:51:08;100188.97;;;7.96;89.14
83563;BME280;73535;52.500;13.482;2023-11-19T09:53:35;100184.63;;;8.09;88.98
83563;BME280;73535;52.500;13.482;2023-11-19T09:56:04;100181.91;;;8.23;89.32
83563;BME280;73535;52.500;13.482;2023-11-19T09:58:31;100181.13;;;8.35;89.23
83563;BME280;73535;52.500;13.482;2023-11-19T10:00:57;100177.75;;;8.46;89.10
83563;BME280;73535;52.500;13.482;2023-11-19T10:03:32;100168.09;;;8.59;89.17
83563;BME280;73535;52.500;13.482;2023-11-19T10:05:57;100180.25;;;8.73;89.35
83563;BME280;73535;52.500;13.482;2023-11-19T10:08:23;100177.81;;;8.82;89.31
83563;BME280;73535;52.500;13.482;2023-11-19T10:10:48;100177.09;;;8.93;89.27
83563;BME280;73535;52.500;13.482;2023-11-19T10:13:14;100174.75;;;9.01;89.07
83563;BME280;73535;52.500;13.482;2023-11-19T10:15:40;100168.84;;;9.10;88.96
83563;BME280;73535;52.500;13.482;2023-11-19T10:18:05;100172.81;;;9.16;88.94
83563;BME280;73535;52.500;13.482;2023-11-19T10:20:37;100172.38;;;9.22;88.66
83563;BME280;73535;52.500;13.482;2023-11-19T10:23:03;100163.97;;;9.29;88.79
83563;BME280;73535;52.500;13.482;2023-11-19T10:25:29;100172.22;;;9.36;88.83
83563;BME280;73535;52.500;13.482;2023-11-19T10:27:55;100171.56;;;9.45;88.44
83563;BME280;73535;52.500;13.482;2023-11-19T10:30:22;100167.78;;;9.49;88.54
83563;BME280;73535;52.500;13.482;2023-11-19T10:33:02;100164.91;;;9.52;88.50
83563;BME280;73535;52.500;13.482;2023-11-19T10:35:27;100158.28;;;9.59;88.52
83563;BME280;73535;52.500;13.482;2023-11-19T10:37:53;100149.13;;;9.64;88.17
83563;BME280;73535;52.500;13.482;2023-11-19T10:40:18;100148.44;;;9.74;88.42
83563;BME280;73535;52.500;13.482;2023-11-19T10:42:43;100142.75;;;9.80;88.22
83563;BME280;73535;52.500;13.482;2023-11-19T10:45:23;100144.22;;;9.95;88.15
83563;BME280;73535;52.500;13.482;2023-11-19T10:47:51;100146.88;;;10.06;88.00
83563;BME280;73535;52.500;13.482;2023-11-19T10:50:17;100140.97;;;10.15;87.72
83563;BME280;73535;52.500;13.482;2023-11-19T10:52:43;100135.00;;;10.24;87.59
83563;BME280;73535;52.500;13.482;2023-11-19T10:55:11;100134.31;;;10.33;87.54
83563;BME280;73535;52.500;13.482;2023-11-19T10:57:39;100131.09;;;10.41;87.22
83563;BME280;73535;52.500;13.482;2023-11-19T11:00:12;100128.81;;;10.47;87.33
83563;BME280;73535;52.500;13.482;2023-11-19T11:02:45;100127.50;;;10.53;86.86
83563;BME280;73535;52.500;13.482;2023-11-19T11:05:12;100139.31;;;10.58;86.40
83563;BME280;73535;52.500;13.482;2023-11-19T11:07:38;100137.06;;;10.65;86.36
83563;BME280;73535;52.500;13.482;2023-11-19T11:10:05;100132.38;;;10.68;86.18
83563;BME280;73535;52.500;13.482;2023-11-19T11:12:36;100129.50;;;10.71;85.90
83563;BME280;73535;52.500;13.482;2023-11-19T11:15:04;100131.06;;;10.74;86.04
83563;BME280;73535;52.500;13.482;2023-11-19T11:17:31;100127.38;;;10.76;85.80
83563;BME280;73535;52.500;13.482;2023-11-19T11:19:58;100123.69;;;10.79;85.93
83563;BME280;73535;52.500;13.482;2023-11-19T11:22:24;100120.81;;;10.82;85.62
83563;BME280;73535;52.500;13.482;2023-11-19T11:25:11;100121.28;;;10.87;85.41
83563;BME280;73535;52.500;13.482;2023-11-19T11:28:04;100121.63;;;10.94;84.40
83563;BME280;73535;52.500;13.482;2023-11-19T11:31:06;100121.13;;;11.00;84.22
83563;BME280;73535;52.500;13.482;2023-11-19T11:37:12;100131.97;;;11.06;83.65
83563;BME280;73535;52.500;13.482;2023-11-19T11:39:41;100123.00;;;11.09;83.69
83563;BME280;73535;52.500;13.482;2023-11-19T11:45:03;100125.63;;;11.20;83.30
83563;BME280;73535;52.500;13.482;2023-11-19T11:50:13;100121.75;;;11.35;82.92
83563;BME280;73535;52.500;13.482;2023-11-19T11:55:35;100116.22;;;11.49;82.65
83563;BME280;73535;52.500;13.482;2023-11-19T11:58:03;100113.06;;;11.55;82.25
83563;BME280;73535;52.500;13.482;2023-11-19T12:00:36;100115.06;;;11.63;82.42
83563;BME280;73535;52.500;13.482;2023-11-19T12:03:04;100116.59;;;11.65;81.58
83563;BME280;73535;52.500;13.482;2023-11-19T12:05:30;100113.63;;;11.70;81.28
83563;BME280;73535;52.500;13.482;2023-11-19T12:07:56;100102.97;;;11.71;81.23
83563;BME280;73535;52.500;13.482;2023-11-19T12:10:24;100111.47;;;11.75;81.29
83563;BME280;73535;52.500;13.482;2023-11-19T12:12:52;100113.69;;;11.79;81.17
83563;BME280;73535;52.500;13.482;2023-11-19T12:15:18;100116.06;;;11.82;80.21
83563;BME280;73535;52.500;13.482;2023-11-19T12:17:49;100122.50;;;11.89;80.26
83563;BME280;73535;52.500;13.482;2023-11-19T12:20:15;100123.47;;;11.88;80.04
83563;BME280;73535;52.500;13.482;2023-11-19T12:22:42;100112.78;;;11.90;79.62
83563;BME280;73535;52.500;13.482;2023-11-19T12:27:36;100113.38;;;11.94;79.69
83563;BME280;73535;52.500;13.482;2023-11-19T12:30:02;100114.09;;;11.96;79.52
83563;BME280;73535;52.500;13.482;2023-11-19T12:32:40;100115.91;;;11.95;79.38
83563;BME280;73535;52.500;13.482;2023-11-19T12:35:06;100113.25;;;11.95;79.33
83563;BME280;73535;52.500;13.482;2023-11-19T12:37:32;100112.41;;;11.95;79.57
83563;BME280;73535;52.500;13.482;2023-11-19T12:39:57;100107.16;;;11.95;79.27
83563;BME280;73535;52.500;13.482;2023-11-19T12:42:35;100098.56;;;11.93;79.48
83563;BME280;73535;52.500;13.482;2023-11-19T12:45:01;100102.16;;;11.92;79.77
83563;BME280;73535;52.500;13.482;2023-11-19T12:47:26;100109.97;;;12.03;79.54
83563;BME280;73535;52.500;13.482;2023-11-19T12:49:56;100103.25;;;11.89;79.74
83563;BME280;73535;52.500;13.482;2023-11-19T12:52:21;100104.34;;;11.86;79.76
83563;BME280;73535;52.500;13.482;2023-11-19T12:54:48;100107.94;;;11.85;79.74
83563;BME280;73535;52.500;13.482;2023-11-19T12:57:13;100117.63;;;11.85;79.54
83563;BME280;73535;52.500;13.482;2023-11-19T12:59:38;100103.59;;;11.84;79.53